sensor_id;sensor_type;location;lat;lon;timestamp;temperature;humidity
15328;DHT22;7764;51.430;6.840;2023-05-10T00:01:33;14.70;99.90
15328;DHT22;7764;51.430;6.840;2023-05-10T00:04:00;14.70;99.90
15328;DHT22;7764;51.430;6.840;2023-05-10T00:06:27;14.60;99.90
15328;DHT22;7764;51.430;6.840;2023-05-10T00:08:54;14.60;99.90
15328;DHT22;7764;51.430;6.840;2023-05-10T00:11:21;14.60;99.90
15328;DHT22;7764;51.430;6.840;2023-05-10T00:13:48;14.60;99.90
15328;DHT22;7764;51.430;6.840;2023-05-10T00:16:16;14.60;99.90
15328;DHT22;7764;51.430;6.840;2023-05-10T00:18:43;14.60;99.90
15328;DHT22;7764;51.430;6.840;2023-05-10T00:21:09;14.60;99.90
15328;DHT22;7764;51.430;6.840;2023-05-10T00:23:36;14.50;99.90
15328;DHT22;7764;51.430;6.840;2023-05-10T00:26:03;14.50;99.90
15328;DHT22;7764;51.430;6.840;2023-05-10T00:28:30;14.50;99.90
15328;DHT22;7764;51.430;6.840;2023-05-10T00:30:57;14.40;99.90
15328;DHT22;7764;51.430;6.840;2023-05-10T00:33:25;14.40;99.90
15328;DHT22;7764;51.430;6.840;2023-05-10T00:35:52;14.40;99.90
15328;DHT22;7764;51.430;6.840;2023-05-10T00:38:19;14.40;99.90
15328;DHT22;7764;51.430;6.840;2023-05-10T00:40:46;14.40;99.90
15328;DHT22;7764;51.430;6.840;2023-05-10T00:43:13;14.50;99.90
15328;DHT22;7764;51.430;6.840;2023-05-10T00:45:40;14.50;99.90
15328;DHT22;7764;51.430;6.840;2023-05-10T00:48:07;14.50;99.90
15328;DHT22;7764;51.430;6.840;2023-05-10T00:50:36;14.40;99.90
15328;DHT22;7764;51.430;6.840;2023-05-10T00:53:03;14.40;99.90
15328;DHT22;7764;51.430;6.840;2023-05-10T00:55:30;14.40;99.90
15328;DHT22;7764;51.430;6.840;2023-05-10T00:57:57;14.30;99.90
15328;DHT22;7764;51.430;6.840;2023-05-10T01:00:24;14.40;99.90
15328;DHT22;7764;51.430;6.840;2023-05-10T01:02:52;14.30;99.90
15328;DHT22;7764;51.430;6.840;2023-05-10T01:05:19;14.40;99.90
15328;DHT22;7764;51.430;6.840;2023-05-10T01:07:48;14.40;99.90
15328;DHT22;7764;51.430;6.840;2023-05-10T01:10:15;14.30;99.90
15328;DHT22;7764;51.430;6.840;2023-05-10T01:12:45;14.30;99.90
15328;DHT22;7764;51.430;6.840;2023-05-10T01:15:13;14.30;99.90
15328;DHT22;7764;51.430;6.840;2023-05-10T01:17:42;14.20;99.90
15328;DHT22;7764;51.430;6.840;2023-05-10T01:20:10;14.20;99.90
15328;DHT22;7764;51.430;6.840;2023-05-10T01:22:55;14.20;99.90
15328;DHT22;7764;51.430;6.840;2023-05-10T01:25:49;14.30;99.90
15328;DHT22;7764;51.430;6.840;2023-05-10T01:31:34;14.20;99.90
15328;DHT22;7764;51.430;6.840;2023-05-10T01:34:13;14.20;99.90
15328;DHT22;7764;51.430;6.840;2023-05-10T01:36:55;14.20;99.90
15328;DHT22;7764;51.430;6.840;2023-05-10T01:39:25;14.10;99.90
15328;DHT22;7764;51.430;6.840;2023-05-10T01:41:55;14.20;99.90
15328;DHT22;7764;51.430;6.840;2023-05-10T01:44:28;14.20;99.90
15328;DHT22;7764;51.430;6.840;2023-05-10T01:47:00;14.20;99.90
15328;DHT22;7764;51.430;6.840;2023-05-10T01:49:33;14.10;99.90
15328;DHT22;7764;51.430;6.840;2023-05-10T01:52:06;14.00;99.90
15328;DHT22;7764;51.430;6.840;2023-05-10T01:54:35;13.90;99.90
15328;DHT22;7764;51.430;6.840;2023-05-10T01:57:06;14.00;99.90
15328;DHT22;7764;51.430;6.840;2023-05-10T01:59:36;14.00;99.90
15328;DHT22;7764;51.430;6.840;2023-05-10T02:02:06;14.00;99.90
15328;DHT22;7764;51.430;6.840;2023-05-10T02:04:35;14.00;99.90
15328;DHT22;7764;51.430;6.840;2023-05-10T02:07:04;14.00;99.90
15328;DHT22;7764;51.430;6.840;2023-05-10T02:09:32;14.00;99.90
15328;DHT22;7764;51.430;6.840;2023-05-10T02:12:02;13.90;99.90
15328;DHT22;7764;51.430;6.840;2023-05-10T02:14:34;14.00;99.90
15328;DHT22;7764;51.430;6.840;2023-05-10T02:17:02;14.00;99.90
15328;DHT22;7764;51.430;6.840;2023-05-10T02:19:32;14.00;99.90
15328;DHT22;7764;51.430;6.840;2023-05-10T02:22:02;14.10;99.90
15328;DHT22;7764;51.430;6.840;2023-05-10T02:24:30;14.20;99.90
15328;DHT22;7764;51.430;6.840;2023-05-10T02:26:59;14.30;99.90
15328;DHT22;7764;51.430;6.840;2023-05-10T02:29:27;14.30;99.90
15328;DHT22;7764;51.430;6.840;2023-05-10T02:31:55;14.30;99.90
15328;DHT22;7764;51.430;6.840;2023-05-10T02:34:24;14.30;99.90
15328;DHT22;7764;51.430;6.840;2023-05-10T02:36:52;14.30;99.90
15328;DHT22;7764;51.430;6.840;2023-05-10T02:39:21;14.30;99.90
15328;DHT22;7764;51.430;6.840;2023-05-10T02:41:49;14.30;99.90
15328;DHT22;7764;51.430;6.840;2023-05-10T02:44:18;14.20;99.90
15328;DHT22;7764;51.430;6.840;2023-05-10T02:46:46;14.20;99.90
15328;DHT22;7764;51.430;6.840;2023-05-10T02:49:13;14.20;99.90
15328;DHT22;7764;51.430;6.840;2023-05-10T02:51:42;14.20;99.90
15328;DHT22;7764;51.430;6.840;2023-05-10T02:54:13;14.20;99.90
15328;DHT22;7764;51.430;6.840;2023-05-10T02:56:51;14.20;99.90
15328;DHT22;7764;51.430;6.840;2023-05-10T02:59:20;14.20;99.90
15328;DHT22;7764;51.430;6.840;2023-05-10T03:01:47;14.20;99.90
15328;DHT22;7764;51.430;6.840;2023-05-10T03:04:13;14.20;99.90
15328;DHT22;7764;51.430;6.840;2023-05-10T03:06:41;14.20;99.90
15328;DHT22;7764;51.430;6.840;2023-05-10T03:09:08;14.20;99.90
15328;DHT22;7764;51.430;6.840;2023-05-10T03:11:47;14.20;99.90
15328;DHT22;7764;51.430;6.840;2023-05-10T03:14:23;14.20;99.90
15328;DHT22;7764;51.430;6.840;2023-05-10T03:16:56;14.20;99.90
15328;DHT22;7764;51.430;6.840;2023-05-10T03:19:27;14.30;99.90
15328;DHT22;7764;51.430;6.840;2023-05-10T03:21:59;14.30;99.90
15328;DHT22;7764;51.430;6.840;2023-05-10T03:24:30;14.20;99.90
15328;DHT22;7764;51.430;6.840;2023-05-10T03:27:00;14.20;99.90
15328;DHT22;7764;51.430;6.840;2023-05-10T03:29:29;14.20;99.90
15328;DHT22;7764;51.430;6.840;2023-05-10T03:31:57;14.20;99.90
15328;DHT22;7764;51.430;6.840;2023-05-10T03:34:24;14.30;99.90
15328;DHT22;7764;51.430;6.840;2023-05-10T03:36:51;14.30;99.90
15328;DHT22;7764;51.430;6.840;2023-05-10T03:39:18;14.30;99.90
15328;DHT22;7764;51.430;6.840;2023-05-10T03:41:46;14.30;99.90
15328;DHT22;7764;51.430;6.840;2023-05-10T03:44:14;14.30;99.90
15328;DHT22;7764;51.430;6.840;2023-05-10T03:46:41;14.40;99.90
15328;DHT22;7764;51.430;6.840;2023-05-10T03:49:08;14.30;99.90
15328;DHT22;7764;51.430;6.840;2023-05-10T03:51:35;14.30;99.90
15328;DHT22;7764;51.430;6.840;2023-05-10T03:54:02;14.40;99.90
15328;DHT22;7764;51.430;6.840;2023-05-10T03:56:29;14.40;99.90
15328;DHT22;7764;51.430;6.840;2023-05-10T03:58:55;14.40;99.90
15328;DHT22;7764;51.430;6.840;2023-05-10T04:01:24;14.40;99.90
15328;DHT22;7764;51.430;6.840;2023-05-10T04:03:51;14.40;99.90
15328;DHT22;7764;51.430;6.840;2023-05-10T04:06:17;14.40;99.90
15328;DHT22;7764;51.430;6.840;2023-05-10T04:08:45;14.40;99.90
15328;DHT22;7764;51.430;6.840;2023-05-10T04:11:11;14.40;99.90
15328;DHT22;7764;51.430;6.840;2023-05-10T04:13:39;14.50;99.90
15328;DHT22;7764;51.430;6.840;2023-05-10T04:16:06;14.50;99.90
15328;DHT22;7764;51.430;6.840;2023-05-10T04:18:35;14.50;99.90
15328;DHT22;7764;51.430;6.840;2023-05-10T04:21:01;14.40;99.90
15328;DHT22;7764;51.430;6.840;2023-05-10T04:23:28;14.40;99.90
15328;DHT22;7764;51.430;6.840;2023-05-10T04:25:59;14.50;99.90
15328;DHT22;7764;51.430;6.840;2023-05-10T04:28:27;14.50;99.90
15328;DHT22;7764;51.430;6.840;2023-05-10T04:31:00;14.50;99.90
15328;DHT22;7764;51.430;6.840;2023-05-10T04:33:27;14.50;99.90
15328;DHT22;7764;51.430;6.840;2023-05-10T04:35:56;14.50;99.90
15328;DHT22;7764;51.430;6.840;2023-05-10T04:38:22;14.60;99.90
15328;DHT22;7764;51.430;6.840;2023-05-10T04:40:50;14.50;99.90
15328;DHT22;7764;51.430;6.840;2023-05-10T04:43:16;14.60;99.90
15328;DHT22;7764;51.430;6.840;2023-05-10T04:45:43;14.60;99.90
15328;DHT22;7764;51.430;6.840;2023-05-10T04:48:10;14.60;99.90
15328;DHT22;7764;51.430;6.840;2023-05-10T04:50:37;14.70;99.90
15328;DHT22;7764;51.430;6.840;2023-05-10T04:53:05;14.60;99.90
15328;DHT22;7764;51.430;6.840;2023-05-10T04:55:32;14.60;99.90
15328;DHT22;7764;51.430;6.840;2023-05-10T04:57:59;14.60;99.90
15328;DHT22;7764;51.430;6.840;2023-05-10T05:00:26;14.60;99.90
15328;DHT22;7764;51.430;6.840;2023-05-10T05:02:52;14.70;99.90
15328;DHT22;7764;51.430;6.840;2023-05-10T05:05:19;14.70;99.90
15328;DHT22;7764;51.430;6.840;2023-05-10T05:07:46;14.70;99.90
15328;DHT22;7764;51.430;6.840;2023-05-10T05:10:14;14.70;99.90
15328;DHT22;7764;51.430;6.840;2023-05-10T05:12:41;14.60;99.90
15328;DHT22;7764;51.430;6.840;2023-05-10T05:15:08;14.70;99.90
15328;DHT22;7764;51.430;6.840;2023-05-10T05:17:36;14.70;99.90
15328;DHT22;7764;51.430;6.840;2023-05-10T05:20:03;14.70;99.90
15328;DHT22;7764;51.430;6.840;2023-05-10T05:22:30;14.70;99.90
15328;DHT22;7764;51.430;6.840;2023-05-10T05:24:57;14.80;99.90
15328;DHT22;7764;51.430;6.840;2023-05-10T05:27:26;14.80;99.90
15328;DHT22;7764;51.430;6.840;2023-05-10T05:29:53;14.80;99.90
15328;DHT22;7764;51.430;6.840;2023-05-10T05:32:20;14.80;99.90
15328;DHT22;7764;51.430;6.840;2023-05-10T05:34:47;14.80;99.90
15328;DHT22;7764;51.430;6.840;2023-05-10T05:37:14;14.90;99.90
15328;DHT22;7764;51.430;6.840;2023-05-10T05:39:41;15.00;99.90
15328;DHT22;7764;51.430;6.840;2023-05-10T05:42:09;15.00;99.90
15328;DHT22;7764;51.430;6.840;2023-05-10T05:44:37;15.00;99.90
15328;DHT22;7764;51.430;6.840;2023-05-10T05:47:04;15.00;99.90
15328;DHT22;7764;51.430;6.840;2023-05-10T05:49:32;15.00;99.90
15328;DHT22;7764;51.430;6.840;2023-05-10T05:51:59;15.10;99.90
15328;DHT22;7764;51.430;6.840;2023-05-10T05:54:26;15.20;99.90
15328;DHT22;7764;51.430;6.840;2023-05-10T05:56:54;15.20;99.90
15328;DHT22;7764;51.430;6.840;2023-05-10T05:59:21;15.20;99.90
15328;DHT22;7764;51.430;6.840;2023-05-10T06:01:49;15.20;99.90
15328;DHT22;7764;51.430;6.840;2023-05-10T06:04:16;15.10;99.90
15328;DHT22;7764;51.430;6.840;2023-05-10T06:06:43;15.00;99.90
15328;DHT22;7764;51.430;6.840;2023-05-10T06:09:10;14.90;99.90
15328;DHT22;7764;51.430;6.840;2023-05-10T06:11:37;14.90;99.90
15328;DHT22;7764;51.430;6.840;2023-05-10T06:14:04;14.90;99.90
15328;DHT22;7764;51.430;6.840;2023-05-10T06:16:32;14.90;99.90
15328;DHT22;7764;51.430;6.840;2023-05-10T06:19:00;14.80;99.90
15328;DHT22;7764;51.430;6.840;2023-05-10T06:21:27;14.80;99.90
15328;DHT22;7764;51.430;6.840;2023-05-10T06:23:54;14.90;99.90
15328;DHT22;7764;51.430;6.840;2023-05-10T06:26:21;15.00;99.90
15328;DHT22;7764;51.430;6.840;2023-05-10T06:28:48;15.10;99.90
15328;DHT22;7764;51.430;6.840;2023-05-10T06:31:15;15.10;99.90
15328;DHT22;7764;51.430;6.840;2023-05-10T06:33:42;15.10;99.90
15328;DHT22;7764;51.430;6.840;2023-05-10T06:36:10;15.10;99.90
15328;DHT22;7764;51.430;6.840;2023-05-10T06:38:37;15.10;99.90
15328;DHT22;7764;51.430;6.840;2023-05-10T06:41:03;15.10;99.90
15328;DHT22;7764;51.430;6.840;2023-05-10T06:43:31;15.10;99.90
15328;DHT22;7764;51.430;6.840;2023-05-10T06:45:57;15.20;99.90
15328;DHT22;7764;51.430;6.840;2023-05-10T06:48:24;15.20;99.90
15328;DHT22;7764;51.430;6.840;2023-05-10T06:50:51;15.20;99.90
15328;DHT22;7764;51.430;6.840;2023-05-10T06:53:19;15.30;99.90
15328;DHT22;7764;51.430;6.840;2023-05-10T06:55:46;15.40;99.90
15328;DHT22;7764;51.430;6.840;2023-05-10T06:58:13;15.50;99.90
15328;DHT22;7764;51.430;6.840;2023-05-10T07:00:40;15.60;99.90
15328;DHT22;7764;51.430;6.840;2023-05-10T07:03:09;15.60;99.90
15328;DHT22;7764;51.430;6.840;2023-05-10T07:05:36;15.60;99.90
15328;DHT22;7764;51.430;6.840;2023-05-10T07:08:03;15.60;99.90
15328;DHT22;7764;51.430;6.840;2023-05-10T07:10:31;15.60;99.90
15328;DHT22;7764;51.430;6.840;2023-05-10T07:12:58;15.50;99.90
15328;DHT22;7764;51.430;6.840;2023-05-10T07:15:25;15.50;99.90
15328;DHT22;7764;51.430;6.840;2023-05-10T07:17:52;15.50;99.90
15328;DHT22;7764;51.430;6.840;2023-05-10T07:20:19;15.60;99.90
15328;DHT22;7764;51.430;6.840;2023-05-10T07:22:46;15.60;99.90
15328;DHT22;7764;51.430;6.840;2023-05-10T07:25:13;15.60;99.90
15328;DHT22;7764;51.430;6.840;2023-05-10T07:27:41;15.50;99.90
15328;DHT22;7764;51.430;6.840;2023-05-10T07:30:08;15.60;99.90
15328;DHT22;7764;51.430;6.840;2023-05-10T07:32:35;15.50;99.90
15328;DHT22;7764;51.430;6.840;2023-05-10T07:35:02;15.50;99.90
15328;DHT22;7764;51.430;6.840;2023-05-10T07:37:29;15.50;99.90
15328;DHT22;7764;51.430;6.840;2023-05-10T07:39:56;15.60;99.90
15328;DHT22;7764;51.430;6.840;2023-05-10T07:42:23;15.70;99.90
15328;DHT22;7764;51.430;6.840;2023-05-10T07:44:51;15.70;99.90
15328;DHT22;7764;51.430;6.840;2023-05-10T07:47:18;15.80;99.90
15328;DHT22;7764;51.430;6.840;2023-05-10T07:49:44;16.00;99.90
15328;DHT22;7764;51.430;6.840;2023-05-10T07:52:11;16.00;99.90
15328;DHT22;7764;51.430;6.840;2023-05-10T07:54:39;16.10;99.90
15328;DHT22;7764;51.430;6.840;2023-05-10T07:57:05;16.10;99.90
15328;DHT22;7764;51.430;6.840;2023-05-10T07:59:32;16.20;99.90
15328;DHT22;7764;51.430;6.840;2023-05-10T08:02:00;16.20;99.90
15328;DHT22;7764;51.430;6.840;2023-05-10T08:04:27;16.30;99.90
15328;DHT22;7764;51.430;6.840;2023-05-10T08:06:54;16.30;99.90
15328;DHT22;7764;51.430;6.840;2023-05-10T08:09:21;16.40;99.90
15328;DHT22;7764;51.430;6.840;2023-05-10T08:11:49;16.40;99.90
15328;DHT22;7764;51.430;6.840;2023-05-10T08:14:16;16.60;99.90
15328;DHT22;7764;51.430;6.840;2023-05-10T08:16:43;16.50;99.90
15328;DHT22;7764;51.430;6.840;2023-05-10T08:19:11;16.50;99.90
15328;DHT22;7764;51.430;6.840;2023-05-10T08:21:38;16.60;99.90
15328;DHT22;7764;51.430;6.840;2023-05-10T08:24:06;16.40;99.90
15328;DHT22;7764;51.430;6.840;2023-05-10T08:26:33;16.30;99.90
15328;DHT22;7764;51.430;6.840;2023-05-10T08:28:59;16.20;99.90
15328;DHT22;7764;51.430;6.840;2023-05-10T08:31:26;16.40;99.90
15328;DHT22;7764;51.430;6.840;2023-05-10T08:33:53;16.80;99.90
15328;DHT22;7764;51.430;6.840;2023-05-10T08:36:21;17.10;99.90
15328;DHT22;7764;51.430;6.840;2023-05-10T08:38:50;17.10;99.90
15328;DHT22;7764;51.430;6.840;2023-05-10T08:41:19;17.10;99.90
15328;DHT22;7764;51.430;6.840;2023-05-10T08:43:46;16.80;99.90
15328;DHT22;7764;51.430;6.840;2023-05-10T08:46:16;16.70;99.90
15328;DHT22;7764;51.430;6.840;2023-05-10T08:48:44;16.70;99.90
15328;DHT22;7764;51.430;6.840;2023-05-10T08:51:13;16.80;99.90
15328;DHT22;7764;51.430;6.840;2023-05-10T08:53:44;17.00;99.90
15328;DHT22;7764;51.430;6.840;2023-05-10T08:56:11;17.00;99.90
15328;DHT22;7764;51.430;6.840;2023-05-10T08:58:38;17.00;99.90
15328;DHT22;7764;51.430;6.840;2023-05-10T09:01:05;17.20;99.90
15328;DHT22;7764;51.430;6.840;2023-05-10T09:03:32;17.40;99.90
15328;DHT22;7764;51.430;6.840;2023-05-10T09:05:59;17.50;99.90
15328;DHT22;7764;51.430;6.840;2023-05-10T09:08:26;17.30;99.90
15328;DHT22;7764;51.430;6.840;2023-05-10T09:10:54;17.20;99.90
15328;DHT22;7764;51.430;6.840;2023-05-10T09:13:22;17.10;99.90
15328;DHT22;7764;51.430;6.840;2023-05-10T09:15:51;17.20;99.90
15328;DHT22;7764;51.430;6.840;2023-05-10T09:18:18;17.10;99.90
15328;DHT22;7764;51.430;6.840;2023-05-10T09:20:45;17.10;99.90
15328;DHT22;7764;51.430;6.840;2023-05-10T09:23:12;17.20;99.90
15328;DHT22;7764;51.430;6.840;2023-05-10T09:25:39;17.20;99.90
15328;DHT22;7764;51.430;6.840;2023-05-10T09:28:09;17.20;99.90
15328;DHT22;7764;51.430;6.840;2023-05-10T09:30:36;17.20;99.90
15328;DHT22;7764;51.430;6.840;2023-05-10T09:33:03;17.20;99.90
15328;DHT22;7764;51.430;6.840;2023-05-10T09:35:31;17.30;99.90
15328;DHT22;7764;51.430;6.840;2023-05-10T09:38:00;17.20;99.90
15328;DHT22;7764;51.430;6.840;2023-05-10T09:40:28;17.30;99.90
15328;DHT22;7764;51.430;6.840;2023-05-10T09:42:56;17.20;99.90
15328;DHT22;7764;51.430;6.840;2023-05-10T09:45:26;17.20;99.90
15328;DHT22;7764;51.430;6.840;2023-05-10T09:47:54;17.20;99.90
15328;DHT22;7764;51.430;6.840;2023-05-10T09:50:21;17.20;99.90
15328;DHT22;7764;51.430;6.840;2023-05-10T09:52:50;17.30;99.90
15328;DHT22;7764;51.430;6.840;2023-05-10T09:55:19;17.20;99.90
15328;DHT22;7764;51.430;6.840;2023-05-10T09:57:46;17.30;99.90
15328;DHT22;7764;51.430;6.840;2023-05-10T10:00:17;17.30;99.90
15328;DHT22;7764;51.430;6.840;2023-05-10T10:02:47;17.30;99.90
15328;DHT22;7764;51.430;6.840;2023-05-10T10:05:15;17.40;99.90
15328;DHT22;7764;51.430;6.840;2023-05-10T10:07:41;17.20;99.90
15328;DHT22;7764;51.430;6.840;2023-05-10T10:10:09;17.00;99.90
15328;DHT22;7764;51.430;6.840;2023-05-10T10:12:39;17.10;99.90
15328;DHT22;7764;51.430;6.840;2023-05-10T10:15:07;17.00;99.90
15328;DHT22;7764;51.430;6.840;2023-05-10T10:17:35;16.90;99.90
15328;DHT22;7764;51.430;6.840;2023-05-10T10:20:06;17.00;99.90
15328;DHT22;7764;51.430;6.840;2023-05-10T10:22:33;16.90;99.90
15328;DHT22;7764;51.430;6.840;2023-05-10T10:25:00;16.70;99.90
15328;DHT22;7764;51.430;6.840;2023-05-10T10:27:36;16.60;99.90
15328;DHT22;7764;51.430;6.840;2023-05-10T10:30:13;16.50;99.90
15328;DHT22;7764;51.430;6.840;2023-05-10T10:35:36;16.50;99.90
15328;DHT22;7764;51.430;6.840;2023-05-10T10:38:03;16.70;99.90
15328;DHT22;7764;51.430;6.840;2023-05-10T10:40:31;16.70;99.90
15328;DHT22;7764;51.430;6.840;2023-05-10T10:43:21;16.70;99.90
15328;DHT22;7764;51.430;6.840;2023-05-10T10:46:09;16.80;99.90
15328;DHT22;7764;51.430;6.840;2023-05-10T10:48:36;16.80;99.90
15328;DHT22;7764;51.430;6.840;2023-05-10T10:51:05;16.80;99.90
15328;DHT22;7764;51.430;6.840;2023-05-10T10:53:32;16.90;99.90
15328;DHT22;7764;51.430;6.840;2023-05-10T10:56:05;17.00;99.90
15328;DHT22;7764;51.430;6.840;2023-05-10T10:58:35;17.10;99.90
15328;DHT22;7764;51.430;6.840;2023-05-10T11:01:13;17.20;99.90
15328;DHT22;7764;51.430;6.840;2023-05-10T11:03:40;17.00;99.90
15328;DHT22;7764;51.430;6.840;2023-05-10T11:06:08;16.90;99.90
15328;DHT22;7764;51.430;6.840;2023-05-10T11:08:42;16.70;99.90
15328;DHT22;7764;51.430;6.840;2023-05-10T11:11:14;16.60;99.90
15328;DHT22;7764;51.430;6.840;2023-05-10T11:13:42;16.50;99.90
15328;DHT22;7764;51.430;6.840;2023-05-10T11:16:11;16.40;99.90
15328;DHT22;7764;51.430;6.840;2023-05-10T11:18:38;16.60;99.90
15328;DHT22;7764;51.430;6.840;2023-05-10T11:21:07;16.60;99.90
15328;DHT22;7764;51.430;6.840;2023-05-10T11:23:49;16.80;99.90
15328;DHT22;7764;51.430;6.840;2023-05-10T11:26:16;17.10;99.90
15328;DHT22;7764;51.430;6.840;2023-05-10T11:28:43;17.30;99.90
15328;DHT22;7764;51.430;6.840;2023-05-10T11:31:10;17.50;99.90
15328;DHT22;7764;51.430;6.840;2023-05-10T11:33:42;17.90;99.90
15328;DHT22;7764;51.430;6.840;2023-05-10T11:36:11;18.00;99.90
15328;DHT22;7764;51.430;6.840;2023-05-10T11:38:39;17.90;99.90
15328;DHT22;7764;51.430;6.840;2023-05-10T11:41:08;17.60;99.90
15328;DHT22;7764;51.430;6.840;2023-05-10T11:43:35;17.80;99.90
15328;DHT22;7764;51.430;6.840;2023-05-10T11:46:04;17.70;99.90
15328;DHT22;7764;51.430;6.840;2023-05-10T11:48:31;17.80;99.90
15328;DHT22;7764;51.430;6.840;2023-05-10T11:50:58;18.00;99.90
15328;DHT22;7764;51.430;6.840;2023-05-10T11:53:26;18.00;99.90
15328;DHT22;7764;51.430;6.840;2023-05-10T11:55:54;17.90;99.90
15328;DHT22;7764;51.430;6.840;2023-05-10T11:58:23;18.00;99.90
15328;DHT22;7764;51.430;6.840;2023-05-10T12:00:50;18.20;99.90
15328;DHT22;7764;51.430;6.840;2023-05-10T12:03:17;17.60;99.90
15328;DHT22;7764;51.430;6.840;2023-05-10T12:05:44;17.80;99.90
15328;DHT22;7764;51.430;6.840;2023-05-10T12:08:12;17.90;99.90
15328;DHT22;7764;51.430;6.840;2023-05-10T12:10:39;17.80;99.90
15328;DHT22;7764;51.430;6.840;2023-05-10T12:13:10;17.80;99.90
15328;DHT22;7764;51.430;6.840;2023-05-10T12:15:37;17.70;99.90
15328;DHT22;7764;51.430;6.840;2023-05-10T12:18:04;17.90;99.90
15328;DHT22;7764;51.430;6.840;2023-05-10T12:20:31;17.80;99.90
15328;DHT22;7764;51.430;6.840;2023-05-10T12:22:58;18.10;99.90
15328;DHT22;7764;51.430;6.840;2023-05-10T12:25:30;18.10;99.90
15328;DHT22;7764;51.430;6.840;2023-05-10T12:27:58;18.10;99.90
15328;DHT22;7764;51.430;6.840;2023-05-10T12:30:29;18.20;99.90
15328;DHT22;7764;51.430;6.840;2023-05-10T12:33:00;18.30;99.90
15328;DHT22;7764;51.430;6.840;2023-05-10T12:35:30;18.30;99.90
15328;DHT22;7764;51.430;6.840;2023-05-10T12:37:57;18.40;99.90
15328;DHT22;7764;51.430;6.840;2023-05-10T12:40:24;18.40;99.90
15328;DHT22;7764;51.430;6.840;2023-05-10T12:42:52;18.50;99.90
15328;DHT22;7764;51.430;6.840;2023-05-10T12:45:19;18.80;99.90
15328;DHT22;7764;51.430;6.840;2023-05-10T12:47:47;18.90;99.90
15328;DHT22;7764;51.430;6.840;2023-05-10T12:50:14;18.80;99.90
15328;DHT22;7764;51.430;6.840;2023-05-10T12:52:41;18.90;99.90
15328;DHT22;7764;51.430;6.840;2023-05-10T12:55:08;19.20;99.90
15328;DHT22;7764;51.430;6.840;2023-05-10T12:57:35;19.50;99.90
15328;DHT22;7764;51.430;6.840;2023-05-10T13:00:02;19.50;99.90
15328;DHT22;7764;51.430;6.840;2023-05-10T13:02:30;19.50;99.90
15328;DHT22;7764;51.430;6.840;2023-05-10T13:04:58;19.50;99.90
15328;DHT22;7764;51.430;6.840;2023-05-10T13:07:25;19.60;99.90
15328;DHT22;7764;51.430;6.840;2023-05-10T13:09:52;19.90;99.90
15328;DHT22;7764;51.430;6.840;2023-05-10T13:12:19;19.90;99.90
15328;DHT22;7764;51.430;6.840;2023-05-10T13:14:46;20.00;99.90
15328;DHT22;7764;51.430;6.840;2023-05-10T13:17:12;20.00;99.90
15328;DHT22;7764;51.430;6.840;2023-05-10T13:19:39;20.10;99.90
15328;DHT22;7764;51.430;6.840;2023-05-10T13:22:08;20.30;99.90
15328;DHT22;7764;51.430;6.840;2023-05-10T13:24:35;20.50;99.90
15328;DHT22;7764;51.430;6.840;2023-05-10T13:27:02;20.60;99.90
15328;DHT22;7764;51.430;6.840;2023-05-10T13:29:28;20.50;99.90
15328;DHT22;7764;51.430;6.840;2023-05-10T13:31:55;20.00;99.90
15328;DHT22;7764;51.430;6.840;2023-05-10T13:34:22;19.70;99.90
15328;DHT22;7764;51.430;6.840;2023-05-10T13:36:49;19.80;99.90
15328;DHT22;7764;51.430;6.840;2023-05-10T13:39:17;19.50;99.90
15328;DHT22;7764;51.430;6.840;2023-05-10T13:41:44;19.50;99.90
15328;DHT22;7764;51.430;6.840;2023-05-10T13:44:12;19.60;99.90
15328;DHT22;7764;51.430;6.840;2023-05-10T13:46:39;19.60;99.90
15328;DHT22;7764;51.430;6.840;2023-05-10T13:49:06;19.80;99.90
15328;DHT22;7764;51.430;6.840;2023-05-10T13:51:33;19.90;99.90
15328;DHT22;7764;51.430;6.840;2023-05-10T13:54:00;20.00;99.90
15328;DHT22;7764;51.430;6.840;2023-05-10T13:56:29;20.10;99.90
15328;DHT22;7764;51.430;6.840;2023-05-10T13:58:56;20.30;99.90
15328;DHT22;7764;51.430;6.840;2023-05-10T14:01:23;20.40;99.90
15328;DHT22;7764;51.430;6.840;2023-05-10T14:03:50;20.50;99.90
15328;DHT22;7764;51.430;6.840;2023-05-10T14:06:17;20.40;99.90
15328;DHT22;7764;51.430;6.840;2023-05-10T14:08:44;20.20;99.90
15328;DHT22;7764;51.430;6.840;2023-05-10T14:11:11;20.30;99.90
15328;DHT22;7764;51.430;6.840;2023-05-10T14:13:39;20.10;99.90
15328;DHT22;7764;51.430;6.840;2023-05-10T14:16:06;19.90;99.90
15328;DHT22;7764;51.430;6.840;2023-05-10T14:18:33;20.10;99.90
15328;DHT22;7764;51.430;6.840;2023-05-10T14:21:02;20.10;99.90
15328;DHT22;7764;51.430;6.840;2023-05-10T14:23:30;20.30;99.90
15328;DHT22;7764;51.430;6.840;2023-05-10T14:25:57;20.40;99.90
15328;DHT22;7764;51.430;6.840;2023-05-10T14:28:23;20.30;99.90
15328;DHT22;7764;51.430;6.840;2023-05-10T14:30:52;20.20;99.90
15328;DHT22;7764;51.430;6.840;2023-05-10T14:33:19;20.20;99.90
15328;DHT22;7764;51.430;6.840;2023-05-10T14:35:46;20.00;99.90
15328;DHT22;7764;51.430;6.840;2023-05-10T14:38:13;20.20;99.90
15328;DHT22;7764;51.430;6.840;2023-05-10T14:40:40;20.20;99.90
15328;DHT22;7764;51.430;6.840;2023-05-10T14:43:07;20.40;99.90
15328;DHT22;7764;51.430;6.840;2023-05-10T14:45:33;20.70;99.90
15328;DHT22;7764;51.430;6.840;2023-05-10T14:48:02;20.60;99.90
15328;DHT22;7764;51.430;6.840;2023-05-10T14:50:30;20.50;99.90
15328;DHT22;7764;51.430;6.840;2023-05-10T14:52:57;20.20;99.90
15328;DHT22;7764;51.430;6.840;2023-05-10T14:55:24;20.10;99.90
15328;DHT22;7764;51.430;6.840;2023-05-10T14:57:51;20.00;99.90
15328;DHT22;7764;51.430;6.840;2023-05-10T15:00:18;20.10;99.90
15328;DHT22;7764;51.430;6.840;2023-05-10T15:02:45;20.10;99.90
15328;DHT22;7764;51.430;6.840;2023-05-10T15:05:14;20.10;99.90
15328;DHT22;7764;51.430;6.840;2023-05-10T15:07:41;19.80;99.90
15328;DHT22;7764;51.430;6.840;2023-05-10T15:10:09;20.00;99.90
15328;DHT22;7764;51.430;6.840;2023-05-10T15:12:36;20.40;99.90
15328;DHT22;7764;51.430;6.840;2023-05-10T15:15:03;20.60;99.90
15328;DHT22;7764;51.430;6.840;2023-05-10T15:17:30;20.30;99.90
15328;DHT22;7764;51.430;6.840;2023-05-10T15:19:57;20.10;99.90
15328;DHT22;7764;51.430;6.840;2023-05-10T15:22:26;19.80;99.90
15328;DHT22;7764;51.430;6.840;2023-05-10T15:24:53;19.80;99.90
15328;DHT22;7764;51.430;6.840;2023-05-10T15:27:20;19.70;99.90
15328;DHT22;7764;51.430;6.840;2023-05-10T15:29:47;19.80;99.90
15328;DHT22;7764;51.430;6.840;2023-05-10T15:32:14;19.90;99.90
15328;DHT22;7764;51.430;6.840;2023-05-10T15:34:41;19.90;99.90
15328;DHT22;7764;51.430;6.840;2023-05-10T15:37:07;19.80;99.90
15328;DHT22;7764;51.430;6.840;2023-05-10T15:39:36;19.70;99.90
15328;DHT22;7764;51.430;6.840;2023-05-10T15:42:03;19.60;99.90
15328;DHT22;7764;51.430;6.840;2023-05-10T15:44:30;19.50;99.90
15328;DHT22;7764;51.430;6.840;2023-05-10T15:46:59;19.40;99.90
15328;DHT22;7764;51.430;6.840;2023-05-10T15:49:25;19.30;99.90
15328;DHT22;7764;51.430;6.840;2023-05-10T15:51:52;18.90;99.90
15328;DHT22;7764;51.430;6.840;2023-05-10T15:54:19;18.60;99.90
15328;DHT22;7764;51.430;6.840;2023-05-10T15:56:47;18.40;99.90